Time;durP1;ratioP1;P1;durP2;ratioP2;P2;SDS_P1;SDS_P2;PMS_P1;PMS_P2;Temp;Humidity;BMP_temperature;BMP_pressure;BME280_temperature;BME280_humidity;BME280_pressure;Samples;Min_cycle;Max_cycle;Signal;HPM_P1;HPM_P2
2022/07/03 00:00:06;;;;;;;10.67;7.20;;;;;;;15.55;99.94;101488.06;171341;28;915;-67
2022/07/03 00:00:12;;;;;;;10.50;7.13;;;;;;;15.55;99.85;101487.19;171397;28;1015;-68
2022/07/03 00:00:18;;;;;;;10.10;7.18;;;;;;;15.54;100.00;101491.59;171363;28;955;-67
2022/07/03 00:00:24;;;;;;;10.35;7.15;;;;;;;15.54;99.96;101485.50;171341;28;794;-67
2022/07/03 00:00:29;;;;;;;10.00;7.30;;;;;;;15.53;99.92;101484.63;171331;28;964;-67
2022/07/03 00:00:35;;;;;;;8.67;7.33;;;;;;;15.54;100.00;101488.13;171374;28;896;-67
2022/07/03 00:00:40;;;;;;;9.05;7.57;;;;;;;15.52;100.00;101485.56;171570;28;832;-67
2022/07/03 00:00:46;;;;;;;9.43;7.50;;;;;;;15.52;100.00;101487.34;171250;28;1876;-67
2022/07/03 00:00:51;;;;;;;8.90;7.55;;;;;;;15.52;100.00;101482.09;171360;28;940;-67
2022/07/03 00:00:57;;;;;;;8.83;7.50;;;;;;;15.51;100.00;101486.50;171350;28;1023;-68
2022/07/03 00:01:03;;;;;;;8.85;7.50;;;;;;;15.51;100.00;101486.50;171358;28;809;-68
2022/07/03 00:01:08;;;;;;;8.93;7.38;;;;;;;15.52;100.00;101487.34;171353;28;975;-67
2022/07/03 00:01:14;;;;;;;9.38;7.47;;;;;;;15.52;100.00;101487.34;171344;28;987;-68
2022/07/03 00:01:20;;;;;;;9.90;7.70;;;;;;;15.52;99.99;101487.34;171339;28;872;-68
2022/07/03 00:01:26;;;;;;;9.88;7.75;;;;;;;15.51;100.00;101485.66;171312;28;1070;-68
2022/07/03 00:01:31;;;;;;;10.07;7.70;;;;;;;15.51;99.94;101488.28;171237;28;860;-67
2022/07/03 00:01:38;;;;;;;10.30;7.80;;;;;;;15.50;100.00;101484.78;171403;28;947;-67
2022/07/03 00:01:43;;;;;;;9.54;7.64;;;;;;;15.51;100.00;101488.28;171372;28;911;-68
2022/07/03 00:01:49;;;;;;;9.33;7.47;;;;;;;15.49;100.00;101488.38;171376;28;859;-67
2022/07/03 00:01:54;;;;;;;9.88;7.45;;;;;;;15.48;100.00;101485.81;171902;28;910;-67
2022/07/03 00:02:00;;;;;;;10.17;7.53;;;;;;;15.50;100.00;101483.97;172017;28;888;-68
2022/07/03 00:02:05;;;;;;;9.85;7.38;;;;;;;15.49;100.00;101482.25;172047;28;1022;-67
2022/07/03 00:02:11;;;;;;;9.97;7.40;;;;;;;15.49;100.00;101482.25;171331;28;920;-67
2022/07/03 00:02:16;;;;;;;10.40;7.50;;;;;;;15.48;100.00;101481.41;171366;28;848;-67
2022/07/03 00:02:22;;;;;;;9.83;7.40;;;;;;;15.48;99.97;101485.81;171341;28;868;-67
2022/07/03 00:02:27;;;;;;;9.32;7.25;;;;;;;15.48;100.00;101483.19;171339;28;896;-67
2022/07/03 00:02:33;;;;;;;9.10;7.10;;;;;;;15.47;99.90;101478.84;171313;28;999;-68
2022/07/03 00:02:38;;;;;;;9.23;7.10;;;;;;;15.48;100.00;101483.19;171370;28;975;-68
2022/07/03 00:02:44;;;;;;;9.33;7.10;;;;;;;15.48;99.92;101488.44;171358;28;750;-67
2022/07/03 00:02:49;;;;;;;8.70;7.10;;;;;;;15.49;100.00;101490.13;171349;28;1022;-68
2022/07/03 00:02:54;;;;;;;8.70;7.07;;;;;;;15.47;100.00;101487.59;171374;28;868;-67
2022/07/03 00:03:00;;;;;;;9.13;7.20;;;;;;;15.48;100.00;101488.44;171373;28;987;-67
2022/07/03 00:03:05;;;;;;;9.53;7.30;;;;;;;15.48;99.88;101485.81;171310;28;927;-68
2022/07/03 00:03:11;;;;;;;9.13;7.37;;;;;;;15.47;99.88;101487.59;171375;28;924;-68
2022/07/03 00:03:16;;;;;;;9.13;7.30;;;;;;;15.47;99.95;101482.34;171338;28;928;-67
2022/07/03 00:03:22;;;;;;;9.50;7.33;;;;;;;15.48;99.96;101483.19;171338;28;828;-68
2022/07/03 00:03:27;;;;;;;9.57;7.47;;;;;;;15.47;100.00;101489.38;172016;28;927;-68
2022/07/03 00:03:32;;;;;;;8.93;7.37;;;;;;;15.47;100.00;101482.34;172034;28;845;-68
2022/07/03 00:03:38;;;;;;;8.43;7.30;;;;;;;15.48;99.78;101491.06;171965;28;932;-67
2022/07/03 00:03:43;;;;;;;8.70;7.50;;;;;;;15.45;99.94;101482.44;171952;28;829;-67
2022/07/03 00:03:49;;;;;;;8.93;7.55;;;;;;;15.46;100.00;101488.53;172043;28;948;-68
2022/07/03 00:03:55;;;;;;;9.03;7.40;;;;;;;15.45;100.00;101487.69;172043;28;856;-68
2022/07/03 00:04:01;;;;;;;8.80;7.25;;;;;;;15.44;99.98;101480.72;172033;28;955;-67
2022/07/03 00:04:06;;;;;;;8.98;7.43;;;;;;;15.43;100.00;101484.28;171998;28;836;-67
2022/07/03 00:04:12;;;;;;;8.88;7.47;;;;;;;15.43;100.00;101489.53;172608;28;943;-67
2022/07/03 00:04:20;;;;;;;8.93;7.33;;;;;;;15.43;99.98;101489.53;172720;28;789;-67
2022/07/03 00:04:25;;;;;;;9.40;7.50;;;;;;;15.42;99.94;101481.72;172732;28;989;-67
2022/07/03 00:04:31;;;;;;;9.80;7.53;;;;;;;15.42;99.96;101486.97;172690;28;1093;-67
2022/07/03 00:04:36;;;;;;;10.03;7.50;;;;;;;15.43;100.00;101488.72;172633;28;975;-67
2022/07/03 00:04:42;;;;;;;10.20;7.47;;;;;;;15.42;100.00;101484.34;172721;28;868;-67
2022/07/03 00:04:47;;;;;;;10.63;7.47;;;;;;;15.40;99.95;101484.44;172707;28;844;-67
2022/07/03 00:04:53;;;;;;;10.43;7.50;;;;;;;15.40;99.95;101484.44;172669;28;880;-67
2022/07/03 00:04:58;;;;;;;9.75;7.53;;;;;;;15.40;100.00;101479.16;172677;28;903;-67
2022/07/03 00:05:04;;;;;;;9.93;7.63;;;;;;;15.40;100.00;101484.44;172713;28;947;-66
2022/07/03 00:05:10;;;;;;;9.20;7.60;;;;;;;15.40;100.00;101483.59;172718;28;989;-67
2022/07/03 00:05:15;;;;;;;8.93;7.70;;;;;;;15.38;100.00;101483.69;172620;28;887;-67
2022/07/03 00:05:21;;;;;;;8.80;7.57;;;;;;;15.38;100.00;101486.31;172690;28;785;-67
2022/07/03 00:05:27;;;;;;;8.73;7.47;;;;;;;15.38;100.00;101485.44;172688;28;1070;-68
2022/07/03 00:05:32;;;;;;;8.73;7.47;;;;;;;15.36;100.00;101482.91;172694;28;994;-67
2022/07/03 00:05:39;;;;;;;8.75;7.40;;;;;;;15.36;100.00;101482.91;172749;28;848;-67
2022/07/03 00:05:44;;;;;;;8.38;7.32;;;;;;;15.35;100.00;101486.47;172629;28;904;-67
2022/07/03 00:05:50;;;;;;;8.63;7.43;;;;;;;15.35;100.00;101486.47;172673;28;916;-66
2022/07/03 00:05:55;;;;;;;8.47;7.50;;;;;;;15.34;100.00;101484.78;172687;28;961;-67
2022/07/03 00:06:01;;;;;;;8.60;7.47;;;;;;;15.34;100.00;101487.41;171926;28;1791;-67
2022/07/03 00:06:06;;;;;;;9.43;7.50;;;;;;;15.34;100.00;101484.78;172020;28;908;-67
2022/07/03 00:06:12;;;;;;;9.68;7.50;;;;;;;15.35;100.00;101486.47;172038;28;916;-67
2022/07/03 00:06:18;;;;;;;9.63;7.40;;;;;;;15.35;100.00;101494.34;171978;28;966;-67
2022/07/03 00:06:26;;;;;;;9.45;7.30;;;;;;;15.35;100.00;101483.84;172006;28;1014;-67
2022/07/03 00:06:33;;;;;;;9.37;7.30;;;;;;;15.35;100.00;101480.34;171264;28;1385;-67
2022/07/03 00:06:39;;;;;;;8.47;7.33;;;;;;;15.34;100.00;101484.78;171380;28;974;-67
2022/07/03 00:06:44;;;;;;;8.45;7.30;;;;;;;15.34;100.00;101487.41;171355;28;916;-67
2022/07/03 00:06:52;;;;;;;8.40;7.50;;;;;;;15.34;100.00;101483.91;171333;28;892;-68
2022/07/03 00:06:58;;;;;;;8.52;7.58;;;;;;;15.34;100.00;101490.03;171361;28;968;-67
2022/07/03 00:07:03;;;;;;;8.90;7.60;;;;;;;15.34;100.00;101484.78;171366;28;951;-67
2022/07/03 00:07:09;;;;;;;8.93;7.60;;;;;;;15.34;100.00;101484.78;171389;28;1081;-67
2022/07/03 00:07:14;;;;;;;8.73;7.57;;;;;;;15.34;100.00;101479.50;171346;28;915;-67
2022/07/03 00:07:20;;;;;;;8.63;7.40;;;;;;;15.34;100.00;101492.66;171367;28;960;-67
2022/07/03 00:07:26;;;;;;;9.68;7.53;;;;;;;15.34;100.00;101487.41;171371;28;967;-67
2022/07/03 00:07:32;;;;;;;9.32;7.50;;;;;;;15.34;100.00;101486.53;171260;28;1305;-67
2022/07/03 00:07:38;;;;;;;9.43;7.53;;;;;;;15.34;100.00;101494.44;171371;28;903;-67
2022/07/03 00:07:44;;;;;;;10.20;7.42;;;;;;;15.34;100.00;101483.91;171314;28;959;-67
2022/07/03 00:07:49;;;;;;;9.87;7.40;;;;;;;15.34;100.00;101489.16;171284;28;1078;-67
2022/07/03 00:07:55;;;;;;;9.25;7.38;;;;;;;15.32;100.00;101481.34;171287;28;860;-68
2022/07/03 00:08:03;;;;;;;9.17;7.40;;;;;;;15.34;100.00;101494.44;171798;28;857;-67
2022/07/03 00:08:08;;;;;;;9.22;7.42;;;;;;;15.33;100.00;101485.72;172056;28;991;-67
2022/07/03 00:08:14;;;;;;;9.00;7.63;;;;;;;15.32;100.00;101484.84;172045;28;852;-67
2022/07/03 00:08:19;;;;;;;9.63;7.73;;;;;;;15.32;100.00;101492.75;172005;28;931;-67
2022/07/03 00:08:25;;;;;;;9.15;7.65;;;;;;;15.33;100.00;101485.72;172030;28;920;-67
2022/07/03 00:08:31;;;;;;;8.93;7.53;;;;;;;15.32;100.00;101491.88;172026;28;915;-67
2022/07/03 00:08:37;;;;;;;8.90;7.50;;;;;;;15.32;100.00;101491.88;172046;28;1034;-67
2022/07/03 00:08:43;;;;;;;8.83;7.20;;;;;;;15.32;100.00;101491.88;172099;28;1078;-67
2022/07/03 00:08:49;;;;;;;8.57;7.23;;;;;;;15.31;100.00;101482.28;172592;28;911;-67
2022/07/03 00:08:54;;;;;;;9.44;7.40;;;;;;;15.31;100.00;101493.69;171898;28;1151;-67
2022/07/03 00:09:04;;;;;;;9.93;7.50;;;;;;;15.31;100.00;101491.03;172022;28;848;-67
2022/07/03 00:09:10;;;;;;;10.73;7.68;;;;;;;15.31;100.00;101495.44;172029;28;1146;-67
2022/07/03 00:09:17;;;;;;;10.13;7.63;;;;;;;15.31;100.00;101492.81;172033;28;922;-67
2022/07/03 00:09:23;;;;;;;9.74;7.42;;;;;;;15.31;100.00;101480.53;172004;28;952;-67
2022/07/03 00:09:28;;;;;;;8.73;7.22;;;;;;;15.30;100.00;101489.31;171251;28;741;-67
2022/07/03 00:09:34;;;;;;;8.70;7.07;;;;;;;15.31;100.00;101490.19;171348;28;924;-67
2022/07/03 00:09:39;;;;;;;8.60;7.00;;;;;;;15.30;100.00;101486.69;171398;28;943;-67
2022/07/03 00:09:45;;;;;;;9.03;7.10;;;;;;;15.30;100.00;101489.31;171372;28;773;-67
2022/07/03 00:09:51;;;;;;;9.27;7.20;;;;;;;15.30;100.00;101485.88;171268;28;762;-67
2022/07/03 00:09:56;;;;;;;9.52;7.28;;;;;;;15.30;100.00;101488.50;171340;28;872;-67
2022/07/03 00:10:02;;;;;;;9.30;7.20;;;;;;;15.29;100.00;101487.63;171302;28;1014;-67
2022/07/03 00:10:08;;;;;;;8.70;7.20;;;;;;;15.29;100.00;101486.78;171324;28;836;-67
2022/07/03 00:10:14;;;;;;;8.90;7.37;;;;;;;15.30;100.00;101493.75;171374;28;880;-67
2022/07/03 00:10:20;;;;;;;8.40;7.40;;;;;;;15.29;100.00;101490.25;171314;28;789;-67
2022/07/03 00:10:26;;;;;;;8.70;7.30;;;;;;;15.29;100.00;101487.63;171334;28;857;-67
2022/07/03 00:10:31;;;;;;;8.97;7.47;;;;;;;15.30;100.00;101488.50;171339;28;987;-68
2022/07/03 00:10:37;;;;;;;8.65;7.40;;;;;;;15.29;100.00;101487.63;171330;28;959;-67
2022/07/03 00:10:42;;;;;;;8.50;7.30;;;;;;;15.29;100.00;101490.25;171246;28;1389;-67
2022/07/03 00:10:48;;;;;;;8.93;7.27;;;;;;;15.28;100.00;101491.19;171350;28;836;-67
2022/07/03 00:10:53;;;;;;;9.05;7.35;;;;;;;15.28;100.00;101485.09;171673;28;1050;-67
2022/07/03 00:10:59;;;;;;;8.93;7.40;;;;;;;15.28;100.00;101495.59;172017;28;1245;-67
2022/07/03 00:11:05;;;;;;;9.63;7.40;;;;;;;15.29;100.00;101492.03;172005;28;1038;-67
2022/07/03 00:11:11;;;;;;;10.27;7.40;;;;;;;15.28;100.00;101490.34;171273;28;1571;-68
2022/07/03 00:11:16;;;;;;;9.93;7.50;;;;;;;15.28;100.00;101492.97;171331;28;1030;-67
2022/07/03 00:11:23;;;;;;;10.50;7.60;;;;;;;15.27;100.00;101488.66;171357;28;960;-67
2022/07/03 00:11:29;;;;;;;10.38;7.48;;;;;;;15.27;100.00;101489.50;171331;28;919;-68
2022/07/03 00:11:34;;;;;;;9.63;7.40;;;;;;;15.27;100.00;101488.66;171331;28;1089;-67
2022/07/03 00:11:40;;;;;;;9.13;7.33;;;;;;;15.27;100.00;101489.50;171378;28;900;-68
2022/07/03 00:11:46;;;;;;;8.82;7.22;;;;;;;15.26;100.00;101487.78;171358;28;998;-68
2022/07/03 00:11:51;;;;;;;8.57;7.00;;;;;;;15.27;100.00;101488.66;171348;28;1010;-67
2022/07/03 00:11:57;;;;;;;8.50;7.03;;;;;;;15.27;100.00;101488.66;170496;29;959;-68
2022/07/03 00:12:04;;;;;;;9.25;7.22;;;;;;;15.26;100.00;101489.59;169932;29;948;-68
2022/07/03 00:12:10;;;;;;;9.63;7.37;;;;;;;15.25;100.00;101491.34;170074;29;876;-68
2022/07/03 00:12:15;;;;;;;10.20;7.40;;;;;;;15.26;100.00;101492.22;169992;29;964;-68
2022/07/03 00:12:21;;;;;;;10.50;7.63;;;;;;;15.26;100.00;101492.22;169265;29;1379;-68
2022/07/03 00:12:26;;;;;;;10.35;7.68;;;;;;;15.26;100.00;101492.22;169354;29;897;-67
2022/07/03 00:12:32;;;;;;;9.47;7.47;;;;;;;15.26;100.00;101492.22;169332;29;853;-67
2022/07/03 00:12:38;;;;;;;9.13;7.40;;;;;;;15.25;100.00;101480.84;169369;29;948;-67
2022/07/03 00:12:44;;;;;;;8.85;7.40;;;;;;;15.26;100.00;101489.59;170002;29;1126;-67
2022/07/03 00:12:49;;;;;;;8.40;7.38;;;;;;;15.25;100.00;101491.34;170016;29;975;-67
2022/07/03 00:12:54;;;;;;;8.20;7.23;;;;;;;15.25;100.00;101485.22;170036;29;932;-67
2022/07/03 00:13:00;;;;;;;8.03;7.20;;;;;;;15.24;100.00;101487.03;170016;29;909;-67
2022/07/03 00:13:05;;;;;;;8.00;7.20;;;;;;;15.24;100.00;101494.06;170019;29;983;-67
2022/07/03 00:13:11;;;;;;;8.00;7.20;;;;;;;15.24;100.00;101491.44;170528;29;987;-67
2022/07/03 00:13:17;;;;;;;7.93;7.13;;;;;;;15.24;100.00;101486.16;170713;29;916;-67
2022/07/03 00:13:22;;;;;;;8.00;7.15;;;;;;;15.24;100.00;101489.66;170696;29;774;-67
2022/07/03 00:13:28;;;;;;;7.93;7.13;;;;;;;15.23;100.00;101487.09;170684;29;971;-66
2022/07/03 00:13:33;;;;;;;8.18;7.30;;;;;;;15.24;100.00;101494.06;170661;29;872;-67
2022/07/03 00:13:39;;;;;;;8.17;7.20;;;;;;;15.23;100.00;101489.75;170670;29;758;-66
2022/07/03 00:13:44;;;;;;;7.97;7.15;;;;;;;15.24;100.00;101488.81;170684;29;742;-67
2022/07/03 00:13:49;;;;;;;7.93;7.13;;;;;;;15.22;100.00;101488.06;170680;29;861;-68
2022/07/03 00:13:55;;;;;;;7.97;7.18;;;;;;;15.23;100.00;101497.63;170990;28;915;-66
2022/07/03 00:14:01;;;;;;;7.97;7.17;;;;;;;15.23;100.00;101495.00;171567;28;900;-66
2022/07/03 00:14:07;;;;;;;8.15;7.05;;;;;;;15.22;100.00;101490.69;171996;28;840;-67
2022/07/03 00:14:12;;;;;;;8.57;7.35;;;;;;;15.22;100.00;101491.50;172068;28;809;-67
2022/07/03 00:14:18;;;;;;;8.35;7.20;;;;;;;15.22;100.00;101493.31;172010;28;891;-67
2022/07/03 00:14:24;;;;;;;8.60;7.17;;;;;;;15.22;100.00;101490.69;172080;28;908;-67
2022/07/03 00:14:29;;;;;;;8.70;7.22;;;;;;;15.21;100.00;101494.22;171951;28;884;-67
2022/07/03 00:14:35;;;;;;;8.48;7.30;;;;;;;15.22;100.00;101490.69;172001;28;852;-67
2022/07/03 00:14:41;;;;;;;8.18;7.18;;;;;;;15.22;100.00;101493.31;172054;28;938;-67
2022/07/03 00:14:46;;;;;;;8.47;7.20;;;;;;;15.21;100.00;101495.06;172006;28;936;-67
2022/07/03 00:14:52;;;;;;;8.25;7.20;;;;;;;15.21;100.00;101491.59;171237;28;1432;-67
2022/07/03 00:14:57;;;;;;;8.17;7.30;;;;;;;15.19;100.00;101489.88;171343;28;932;-67
2022/07/03 00:15:04;;;;;;;8.30;7.32;;;;;;;15.21;100.00;101494.22;171305;28;904;-68
2022/07/03 00:15:09;;;;;;;8.82;7.30;;;;;;;15.19;100.00;101492.53;170575;28;1281;-68
2022/07/03 00:15:15;;;;;;;8.77;7.40;;;;;;;15.19;100.00;101491.66;170698;29;848;-68
2022/07/03 00:15:20;;;;;;;8.77;7.57;;;;;;;15.18;100.00;101489.97;170678;29;964;-68
2022/07/03 00:15:26;;;;;;;8.77;7.60;;;;;;;15.18;100.00;101489.97;170690;29;912;-68
2022/07/03 00:15:31;;;;;;;8.50;7.60;;;;;;;15.17;100.00;101494.41;169913;29;1405;-67
2022/07/03 00:15:38;;;;;;;8.45;7.57;;;;;;;15.15;100.00;101488.34;170008;29;987;-68
2022/07/03 00:15:43;;;;;;;8.35;7.50;;;;;;;15.15;100.00;101490.13;169315;29;1070;-68
2022/07/03 00:15:49;;;;;;;8.55;7.63;;;;;;;15.13;100.00;101495.47;169360;29;925;-67
2022/07/03 00:15:54;;;;;;;8.50;7.60;;;;;;;15.14;100.00;101491.91;169273;29;1043;-67
2022/07/03 00:16:00;;;;;;;9.02;7.60;;;;;;;15.13;100.00;101492.00;168664;29;1331;-68
2022/07/03 00:16:06;;;;;;;8.93;7.50;;;;;;;15.13;100.00;101497.25;168663;29;932;-67
2022/07/03 00:16:11;;;;;;;9.15;7.55;;;;;;;15.13;100.00;101490.22;168702;29;1095;-67
2022/07/03 00:16:17;;;;;;;8.63;7.53;;;;;;;15.13;100.00;101490.22;168707;29;972;-68
2022/07/03 00:16:22;;;;;;;8.40;7.40;;;;;;;15.14;100.00;101491.06;168696;29;921;-67
2022/07/03 00:16:28;;;;;;;8.47;7.27;;;;;;;15.13;100.00;101494.63;168950;29;1003;-68
2022/07/03 00:16:33;;;;;;;8.25;7.22;;;;;;;15.12;100.00;101496.38;169352;29;854;-67
2022/07/03 00:16:39;;;;;;;8.57;7.60;;;;;;;15.12;100.00;101495.56;169383;29;829;-67
2022/07/03 00:16:45;;;;;;;9.00;7.60;;;;;;;15.12;100.00;101495.56;169390;29;814;-67
2022/07/03 00:16:50;;;;;;;10.23;7.70;;;;;;;15.11;100.00;101499.94;169676;29;932;-68
2022/07/03 00:16:55;;;;;;;10.67;7.80;;;;;;;15.11;100.00;101499.94;170018;29;924;-67
2022/07/03 00:17:01;;;;;;;10.57;7.90;;;;;;;15.11;100.00;101499.94;170028;29;841;-67
2022/07/03 00:17:07;;;;;;;10.33;7.70;;;;;;;15.10;100.00;101500.91;170192;29;712;-67
2022/07/03 00:17:12;;;;;;;10.25;7.63;;;;;;;15.10;100.00;101500.91;170717;29;967;-67
2022/07/03 00:17:18;;;;;;;10.00;7.60;;;;;;;15.08;100.00;101492.22;170658;29;895;-67
2022/07/03 00:17:23;;;;;;;9.55;7.55;;;;;;;15.08;100.00;101497.47;170664;29;872;-67
2022/07/03 00:17:29;;;;;;;9.70;7.67;;;;;;;15.08;100.00;101497.47;170735;28;1043;-67
2022/07/03 00:17:34;;;;;;;9.75;7.60;;;;;;;15.06;100.00;101500.19;171326;28;951;-68
2022/07/03 00:17:40;;;;;;;11.07;7.63;;;;;;;15.06;100.00;101496.72;171386;28;939;-68
2022/07/03 00:17:45;;;;;;;11.20;7.53;;;;;;;15.05;100.00;101495.88;172002;28;1104;-67
2022/07/03 00:17:51;;;;;;;11.17;7.47;;;;;;;15.05;100.00;101495.00;171262;28;876;-68
2022/07/03 00:17:56;;;;;;;10.25;7.35;;;;;;;15.05;100.00;101495.00;171370;28;979;-67
2022/07/03 00:18:02;;;;;;;10.77;7.30;;;;;;;15.04;100.00;101494.16;172025;28;856;-67
2022/07/03 00:18:07;;;;;;;10.82;7.40;;;;;;;15.05;100.00;101495.88;172015;28;868;-67
2022/07/03 00:18:13;;;;;;;8.83;7.27;;;;;;;15.05;100.00;101492.38;171993;28;848;-68
2022/07/03 00:18:18;;;;;;;8.68;7.22;;;;;;;15.05;100.00;101497.63;171218;28;1498;-67
2022/07/03 00:18:24;;;;;;;8.53;7.23;;;;;;;15.05;100.00;101500.25;171325;28;994;-67
2022/07/03 00:18:29;;;;;;;8.32;7.10;;;;;;;15.06;100.00;101499.34;171328;28;1015;-67
2022/07/03 00:18:35;;;;;;;8.30;6.90;;;;;;;15.05;100.00;101495.88;170611;29;900;-67
2022/07/03 00:18:40;;;;;;;8.83;7.00;;;;;;;15.06;100.00;101499.34;170693;29;848;-68
2022/07/03 00:18:46;;;;;;;9.40;7.03;;;;;;;15.06;100.00;101496.72;170684;29;852;-68
2022/07/03 00:18:51;;;;;;;9.50;7.10;;;;;;;15.06;100.00;101491.47;170669;29;857;-68
2022/07/03 00:18:57;;;;;;;10.02;7.20;;;;;;;15.06;100.00;101501.97;170695;29;1098;-67
2022/07/03 00:19:03;;;;;;;9.47;7.30;;;;;;;15.06;100.00;101496.72;170657;29;868;-67
2022/07/03 00:19:09;;;;;;;9.63;7.30;;;;;;;15.07;100.00;101501.03;170701;29;948;-68
2022/07/03 00:19:14;;;;;;;9.23;7.38;;;;;;;15.05;100.00;101498.50;170719;29;929;-67
2022/07/03 00:19:19;;;;;;;8.90;7.30;;;;;;;15.05;100.00;101489.75;170705;29;1185;-67
2022/07/03 00:19:25;;;;;;;8.85;7.25;;;;;;;15.04;100.00;101494.16;170588;29;1908;-67
2022/07/03 00:19:30;;;;;;;8.70;7.13;;;;;;;15.05;100.00;101489.75;170664;29;896;-68
2022/07/03 00:19:36;;;;;;;8.47;7.13;;;;;;;15.06;100.00;101496.72;170625;29;955;-67
2022/07/03 00:19:41;;;;;;;8.30;7.20;;;;;;;15.05;100.00;101490.59;170699;29;916;-67
2022/07/03 00:19:48;;;;;;;8.38;7.30;;;;;;;15.04;100.00;101488.91;170711;28;852;-68
2022/07/03 00:19:54;;;;;;;8.85;7.40;;;;;;;15.05;100.00;101495.88;171363;28;986;-67
2022/07/03 00:20:00;;;;;;;9.53;7.53;;;;;;;15.06;100.00;101491.47;171355;28;952;-68
2022/07/03 00:20:07;;;;;;;9.27;7.57;;;;;;;15.06;100.00;101494.09;171336;28;980;-67
2022/07/03 00:20:12;;;;;;;9.10;7.45;;;;;;;15.06;100.00;101486.22;171359;28;924;-67
2022/07/03 00:20:19;;;;;;;9.10;7.40;;;;;;;15.05;100.00;101493.22;171700;28;856;-67
2022/07/03 00:20:35;;;;;;;8.33;7.30;;;;;;;15.05;100.00;101495.88;172017;28;962;-68
2022/07/03 00:20:48;;;;;;;7.85;7.05;;;;;;;15.06;100.00;101491.47;172106;28;1209;-67
2022/07/03 00:21:07;;;;;;;8.15;6.94;;;;;;;15.05;100.00;101495.88;171949;28;2359;-67
2022/07/03 00:21:20;;;;;;;9.73;7.22;;;;;;;15.03;100.00;101495.09;172035;28;1264;-67
2022/07/03 00:21:41;;;;;;;10.01;7.25;;;;;;;15.02;100.00;101489.91;172038;28;1242;-67
2022/07/03 00:21:56;;;;;;;9.50;7.40;;;;;;;15.00;100.00;101489.13;172022;28;1257;-68
2022/07/03 00:22:10;;;;;;;9.23;7.79;;;;;;;15.00;100.00;101492.63;172061;28;1222;-68
2022/07/03 00:22:17;;;;;;;9.02;7.46;;;;;;;15.01;100.00;101499.56;172076;28;1225;-67
2022/07/03 00:22:25;;;;;;;9.47;7.30;;;;;;;15.00;100.00;101494.41;172056;28;1153;-68
2022/07/03 00:22:36;;;;;;;9.60;7.40;;;;;;;14.98;100.00;101493.63;171921;28;1733;-67
2022/07/03 00:22:43;;;;;;;9.62;7.50;;;;;;;14.98;100.00;101496.25;172106;28;1259;-67
2022/07/03 00:22:51;;;;;;;8.97;7.43;;;;;;;14.98;100.00;101498.91;172070;28;984;-67
2022/07/03 00:23:08;;;;;;;8.88;7.28;;;;;;;14.97;100.00;101494.53;171993;28;965;-67
2022/07/03 00:23:18;;;;;;;9.31;7.15;;;;;;;14.97;100.00;101497.16;172079;28;1214;-67
2022/07/03 00:23:23;;;;;;;8.99;7.06;;;;;;;14.96;100.00;101496.34;172041;28;1130;-67
2022/07/03 00:23:45;;;;;;;9.10;7.10;;;;;;;14.96;100.00;101500.72;172037;28;869;-68
2022/07/03 00:24:04;;;;;;;9.51;7.32;;;;;;;14.95;100.00;101502.50;171640;28;1226;-68
2022/07/03 00:24:51;;;;;;;10.21;7.50;;;;;;;14.93;100.00;101497.34;172052;28;1235;-67
2022/07/03 00:25:10;;;;;;;10.29;7.32;;;;;;;14.93;100.00;101501.75;171272;28;1240;-67
2022/07/03 00:25:16;;;;;;;10.30;7.18;;;;;;;14.93;100.00;101507.88;171825;28;1342;-67
2022/07/03 00:25:21;;;;;;;8.54;7.20;;;;;;;14.93;100.00;101502.59;171965;28;872;-67
2022/07/03 00:25:28;;;;;;;8.30;7.27;;;;;;;14.92;100.00;101500.88;171998;28;915;-67
2022/07/03 00:25:34;;;;;;;8.13;7.27;;;;;;;14.92;100.00;101500.88;172007;28;951;-67
2022/07/03 00:25:41;;;;;;;8.15;7.22;;;;;;;14.93;100.00;101504.38;171867;28;1410;-68
2022/07/03 00:25:49;;;;;;;8.00;7.10;;;;;;;14.93;100.00;101507.88;172012;28;917;-68
2022/07/03 00:25:58;;;;;;;8.30;7.18;;;;;;;14.92;100.00;101510.56;171998;28;967;-67
2022/07/03 00:26:05;;;;;;;9.44;7.44;;;;;;;14.89;100.00;101501.03;171964;28;1043;-67
2022/07/03 00:26:13;;;;;;;9.78;7.56;;;;;;;14.88;100.00;101503.75;172021;28;971;-67
2022/07/03 00:26:21;;;;;;;10.23;7.68;;;;;;;14.85;100.00;101504.75;172006;28;1019;-67
2022/07/03 00:26:34;;;;;;;10.42;7.52;;;;;;;14.81;100.00;101503.19;171944;28;1163;-67
2022/07/03 00:26:44;;;;;;;9.59;7.43;;;;;;;14.70;100.00;101500.22;171927;28;1244;-67
2022/07/03 00:26:53;;;;;;;8.56;7.29;;;;;;;14.63;100.00;101499.69;171983;28;1128;-67
2022/07/03 00:27:01;;;;;;;7.80;7.10;;;;;;;14.57;100.00;101506.06;172030;28;970;-67
2022/07/03 00:27:09;;;;;;;7.77;7.05;;;;;;;14.54;100.00;101508.84;172014;28;968;-68
2022/07/03 00:27:17;;;;;;;7.98;7.18;;;;;;;14.51;100.00;101511.66;172031;28;958;-67
2022/07/03 00:27:25;;;;;;;7.90;7.10;;;;;;;14.47;100.00;101507.47;171999;28;880;-67
2022/07/03 00:27:33;;;;;;;8.12;7.23;;;;;;;14.45;100.00;101501.44;171216;28;3486;-67
2022/07/03 00:27:44;;;;;;;8.33;7.00;;;;;;;14.40;100.00;101505.13;171327;28;971;-67
2022/07/03 00:27:50;;;;;;;9.12;7.08;;;;;;;14.39;100.00;101516.56;171308;28;1227;-67
2022/07/03 00:27:56;;;;;;;9.70;7.30;;;;;;;14.39;100.00;101507.81;171289;28;1062;-67
2022/07/03 00:28:02;;;;;;;9.38;7.18;;;;;;;14.37;100.00;101510.53;171356;28;892;-67
2022/07/03 00:28:08;;;;;;;8.50;7.15;;;;;;;14.39;100.00;101513.06;171360;28;943;-67
2022/07/03 00:28:14;;;;;;;8.42;7.12;;;;;;;14.38;100.00;101507.00;171379;28;959;-67
2022/07/03 00:28:20;;;;;;;8.33;7.03;;;;;;;14.37;100.00;101510.53;171333;28;939;-67
2022/07/03 00:28:26;;;;;;;8.40;6.95;;;;;;;14.40;100.00;101513.00;171713;28;852;-67
2022/07/03 00:28:32;;;;;;;8.40;7.00;;;;;;;14.41;100.00;101517.31;171998;28;660;-67
2022/07/03 00:28:38;;;;;;;8.83;7.00;;;;;;;14.40;100.00;101515.63;171926;28;923;-67
2022/07/03 00:28:45;;;;;;;8.80;7.00;;;;;;;14.38;100.00;101509.63;172052;28;947;-67
2022/07/03 00:28:52;;;;;;;7.73;6.93;;;;;;;14.36;100.00;101514.09;172031;28;1042;-67
2022/07/03 00:29:01;;;;;;;7.90;6.90;;;;;;;14.35;100.00;101511.53;172023;28;955;-67
2022/07/03 00:29:09;;;;;;;8.66;6.90;;;;;;;14.37;100.00;101513.16;171992;28;1057;-67
2022/07/03 00:29:17;;;;;;;8.53;6.77;;;;;;;14.39;100.00;101516.56;172077;28;895;-67
2022/07/03 00:29:29;;;;;;;8.28;6.67;;;;;;;14.41;100.00;101514.69;171979;28;971;-67
2022/07/03 00:29:43;;;;;;;7.86;6.56;;;;;;;14.52;100.00;101514.22;172638;28;1205;-66
2022/07/03 00:29:53;;;;;;;7.64;6.15;;;;;;;14.50;100.00;101510.78;172648;28;1198;-67
2022/07/03 00:30:01;;;;;;;8.41;5.89;;;;;;;14.50;100.00;101517.81;172010;28;2481;-67
2022/07/03 00:30:07;;;;;;;8.87;5.73;;;;;;;14.48;100.00;101517.91;172082;28;988;-67
2022/07/03 00:30:13;;;;;;;8.56;5.80;;;;;;;14.48;100.00;101519.66;172117;28;910;-66
2022/07/03 00:30:19;;;;;;;9.07;5.77;;;;;;;14.48;100.00;101519.66;172077;28;990;-67
2022/07/03 00:30:26;;;;;;;8.52;5.72;;;;;;;14.49;100.00;101518.75;172067;28;867;-66
2022/07/03 00:30:33;;;;;;;7.92;5.62;;;;;;;14.55;100.00;101513.19;171838;28;1581;-65
2022/07/03 00:30:42;;;;;;;7.84;5.50;;;;;;;14.61;100.00;101515.50;172014;28;1081;-65
2022/07/03 00:30:49;;;;;;;7.36;5.44;;;;;;;14.61;100.00;101523.38;171984;28;1125;-66
2022/07/03 00:30:55;;;;;;;8.37;5.67;;;;;;;14.61;100.00;101517.31;172011;28;962;-66
2022/07/03 00:31:01;;;;;;;8.48;5.70;;;;;;;14.62;100.00;101519.88;171213;28;1030;-67
2022/07/03 00:31:09;;;;;;;7.50;5.60;;;;;;;14.63;100.00;101521.56;171157;28;887;-67
2022/07/03 00:31:14;;;;;;;7.28;5.48;;;;;;;14.66;100.00;101515.28;171289;28;990;-67
2022/07/03 00:31:23;;;;;;;7.82;5.38;;;;;;;14.70;100.00;101515.97;171338;28;931;-67
2022/07/03 00:31:32;;;;;;;6.43;5.02;;;;;;;14.73;100.00;101523.72;171341;28;976;-67
2022/07/03 00:31:37;;;;;;;7.10;5.17;;;;;;;14.75;100.00;101517.44;170557;29;1409;-67
2022/07/03 00:31:43;;;;;;;8.25;5.13;;;;;;;14.78;100.00;101519.13;169943;29;896;-67
2022/07/03 00:31:49;;;;;;;8.63;5.10;;;;;;;14.80;100.00;101522.53;169991;29;872;-67